createdAt,value
2018-11-06T00:01:27.582Z,21.77
2018-11-06T00:06:11.661Z,21.80
2018-11-06T00:10:55.437Z,21.03
2018-11-06T00:15:39.223Z,21.20
2018-11-06T00:20:23.581Z,21.13
2018-11-06T00:25:08.504Z,22.00
2018-11-06T00:29:53.150Z,20.83
2018-11-06T00:34:37.955Z,21.07
2018-11-06T00:39:21.749Z,22.07
2018-11-06T00:44:05.600Z,21.00
2018-11-06T00:48:49.307Z,22.10
2018-11-06T00:53:33.439Z,20.40
2018-11-06T00:58:17.247Z,21.10
2018-11-06T01:03:01.212Z,21.33
2018-11-06T01:07:47.337Z,21.83
2018-11-06T01:12:31.131Z,20.87
2018-11-06T01:17:15.034Z,22.27
2018-11-06T01:21:59.045Z,21.83
2018-11-06T01:26:42.981Z,22.37
2018-11-06T01:31:26.939Z,22.37
2018-11-06T01:36:10.796Z,20.57
2018-11-06T01:40:54.637Z,22.33
2018-11-06T01:45:38.965Z,23.40
2018-11-06T01:50:22.775Z,23.07
2018-11-06T01:55:07.329Z,23.30
2018-11-06T01:59:51.161Z,24.00
2018-11-06T02:04:35.480Z,22.90
2018-11-06T02:09:19.521Z,22.83
2018-11-06T02:14:03.480Z,22.17
2018-11-06T02:18:47.335Z,23.53
2018-11-06T02:23:31.138Z,23.07
2018-11-06T02:28:15.045Z,23.83
2018-11-06T02:32:59.535Z,23.97
2018-11-06T02:37:43.370Z,24.60
2018-11-06T02:42:27.168Z,24.33
2018-11-06T02:47:11.081Z,24.33
2018-11-06T02:51:55.041Z,24.07
2018-11-06T02:56:38.915Z,24.37
2018-11-06T03:01:22.667Z,23.90
2018-11-06T03:06:06.634Z,24.57
2018-11-06T03:10:50.544Z,24.20
2018-11-06T03:15:34.426Z,25.13
2018-11-06T03:20:18.308Z,24.60
2018-11-06T03:25:02.124Z,24.63
2018-11-06T03:29:46.274Z,25.70
2018-11-06T03:34:30.186Z,25.87
2018-11-06T03:39:14.227Z,24.87
2018-11-06T03:43:58.227Z,25.33
2018-11-06T03:48:42.088Z,24.03
2018-11-06T03:53:27.216Z,23.20
2018-11-06T03:58:10.931Z,23.47
2018-11-06T04:02:54.876Z,24.57
2018-11-06T04:07:38.761Z,23.67
2018-11-06T04:12:23.534Z,24.47
2018-11-06T04:17:07.309Z,23.43
2018-11-06T04:21:51.097Z,25.23
2018-11-06T04:26:36.599Z,24.33
2018-11-06T04:31:22.982Z,25.37
2018-11-06T04:36:06.928Z,23.53
2018-11-06T04:40:50.844Z,25.43
2018-11-06T04:45:34.556Z,25.40
2018-11-06T04:50:19.757Z,23.53
2018-11-06T04:55:03.632Z,24.50
2018-11-06T04:59:47.674Z,24.43
2018-11-06T05:04:31.701Z,25.20
2018-11-06T05:09:16.110Z,23.43
2018-11-06T05:14:00.513Z,24.90
2018-11-06T05:18:44.287Z,24.43
2018-11-06T05:23:28.038Z,23.53
2018-11-06T05:28:11.756Z,24.37
2018-11-06T05:32:55.727Z,22.50
2018-11-06T05:37:39.800Z,23.40
2018-11-06T05:42:23.550Z,23.77
2018-11-06T05:47:07.478Z,22.80
2018-11-06T05:51:51.257Z,23.83
2018-11-06T05:56:34.999Z,22.70
2018-11-06T06:01:18.921Z,23.07
2018-11-06T06:06:02.859Z,25.57
2018-11-06T06:10:46.555Z,24.37
2018-11-06T06:15:30.662Z,23.70
2018-11-06T06:20:14.455Z,25.13
2018-11-06T06:24:58.406Z,24.53
2018-11-06T06:29:42.240Z,24.90
2018-11-06T06:34:26.667Z,24.30
2018-11-06T06:39:10.940Z,26.00
2018-11-06T06:43:54.736Z,27.63
2018-11-06T06:48:38.605Z,26.50
2018-11-06T06:53:22.495Z,24.30
2018-11-06T06:58:06.403Z,25.03
2018-11-06T07:02:50.308Z,24.10
2018-11-06T07:07:37.476Z,23.43
2018-11-06T07:12:21.286Z,25.23
2018-11-06T07:17:05.344Z,24.57
2018-11-06T07:21:49.180Z,24.53
2018-11-06T07:26:33.371Z,24.20
2018-11-06T07:31:17.228Z,28.37
2018-11-06T07:36:01.217Z,26.70
2018-11-06T07:40:45.385Z,22.57
2018-11-06T07:45:29.580Z,22.00
2018-11-06T07:50:14.148Z,22.33
2018-11-06T07:54:57.941Z,21.63
2018-11-06T07:59:41.734Z,21.90
2018-11-06T08:04:25.506Z,20.47
2018-11-06T08:09:10.301Z,20.80
2018-11-06T08:13:54.283Z,19.83
2018-11-06T08:18:38.110Z,19.97
2018-11-06T08:23:22.145Z,18.07
2018-11-06T08:28:06.196Z,19.90
2018-11-06T08:32:50.216Z,19.80
2018-11-06T08:37:33.653Z,19.63
2018-11-06T08:42:17.578Z,17.67
2018-11-06T08:47:01.432Z,18.83
2018-11-06T08:51:45.235Z,19.10
2018-11-06T08:56:29.095Z,19.17
2018-11-06T09:01:12.804Z,19.07
2018-11-06T09:05:56.729Z,18.70
2018-11-06T09:10:40.535Z,17.97
2018-11-06T09:15:24.425Z,18.20
2018-11-06T09:20:11.019Z,17.37
2018-11-06T09:24:54.782Z,18.30
2018-11-06T09:29:38.533Z,17.53
2018-11-06T09:34:22.435Z,16.93
2018-11-06T09:39:09.102Z,16.93
2018-11-06T09:43:53.131Z,16.43
2018-11-06T09:48:36.891Z,15.57
2018-11-06T09:53:20.716Z,16.03
2018-11-06T09:58:04.845Z,15.83
2018-11-06T10:02:48.755Z,15.97
2018-11-06T10:07:32.490Z,15.20
2018-11-06T10:12:16.364Z,15.17
2018-11-06T10:17:00.060Z,16.40
2018-11-06T10:21:45.142Z,15.50
2018-11-06T10:26:29.101Z,15.30
2018-11-06T10:31:12.929Z,14.93
2018-11-06T10:35:56.774Z,14.70
2018-11-06T10:40:40.500Z,14.70
2018-11-06T10:45:24.298Z,14.53
2018-11-06T10:50:09.118Z,15.60
2018-11-06T10:54:53.416Z,14.83
2018-11-06T10:59:37.238Z,15.73
2018-11-06T11:04:22.813Z,15.63
2018-11-06T11:09:08.749Z,15.77
2018-11-06T11:13:53.066Z,16.67
2018-11-06T11:18:36.801Z,16.27
2018-11-06T11:23:20.609Z,14.77
2018-11-06T11:28:04.278Z,15.47
2018-11-06T11:32:48.878Z,14.60
2018-11-06T11:37:32.846Z,15.07
2018-11-06T11:42:16.732Z,15.20
2018-11-06T11:47:00.612Z,15.67
2018-11-06T11:51:47.780Z,15.13
2018-11-06T11:56:31.558Z,15.60
2018-11-06T12:01:15.348Z,15.00
2018-11-06T12:05:59.040Z,15.80
2018-11-06T12:10:42.847Z,14.97
2018-11-06T12:15:26.618Z,15.90
2018-11-06T12:20:10.755Z,15.80
2018-11-06T12:24:54.584Z,17.30
2018-11-06T12:29:38.404Z,18.03
2018-11-06T12:34:22.323Z,17.90
2018-11-06T12:39:08.149Z,18.43
2018-11-06T12:43:52.150Z,18.23
2018-11-06T12:48:36.157Z,17.10
2018-11-06T12:53:20.215Z,17.83
2018-11-06T12:58:04.196Z,17.17
2018-11-06T13:02:48.072Z,17.20
2018-11-06T13:07:31.785Z,18.30
2018-11-06T13:12:15.612Z,19.20
2018-11-06T13:16:59.537Z,19.80
2018-11-06T13:21:43.877Z,19.07
2018-11-06T13:26:27.889Z,18.63
2018-11-06T13:31:11.868Z,18.87
2018-11-06T13:35:55.826Z,18.70
2018-11-06T13:40:39.978Z,18.77
2018-11-06T13:45:25.249Z,19.17
2018-11-06T13:50:09.330Z,18.17
2018-11-06T13:54:53.095Z,18.90
2018-11-06T13:59:36.870Z,18.87
2018-11-06T14:04:21.376Z,18.17
2018-11-06T14:09:06.614Z,18.73
2018-11-06T14:13:50.357Z,19.77
2018-11-06T14:18:34.389Z,19.20
2018-11-06T14:25:10.327Z,19.43
2018-11-06T14:29:54.695Z,20.33
2018-11-06T14:34:38.530Z,20.30
2018-11-06T14:39:37.252Z,20.53
2018-11-06T14:45:09.090Z,21.80
2018-11-06T14:49:53.076Z,22.10
2018-11-06T14:54:37.906Z,22.03
2018-11-06T14:59:22.893Z,24.33
2018-11-06T15:04:06.703Z,25.97
2018-11-06T15:08:50.432Z,25.60
2018-11-06T15:13:34.185Z,24.70
2018-11-06T15:18:18.043Z,25.67
2018-11-06T15:23:01.926Z,23.37
2018-11-06T15:27:46.233Z,25.40
2018-11-06T15:32:30.175Z,26.10
2018-11-06T15:37:13.908Z,25.57
2018-11-06T15:41:59.279Z,25.43
2018-11-06T15:46:43.231Z,24.97
2018-11-06T15:51:26.911Z,24.57
2018-11-06T15:56:10.665Z,25.23
2018-11-06T16:00:54.419Z,25.73
2018-11-06T16:05:38.467Z,26.47
2018-11-06T16:10:23.446Z,25.13
2018-11-06T16:15:08.030Z,26.93
2018-11-06T16:19:51.664Z,25.43
2018-11-06T16:24:35.459Z,25.50
2018-11-06T16:29:19.272Z,25.37
2018-11-06T16:34:03.450Z,25.20
2018-11-06T16:38:47.532Z,25.40
2018-11-06T16:43:31.595Z,26.47
2018-11-06T16:48:15.895Z,25.13
2018-11-06T16:53:00.025Z,27.37
2018-11-06T16:57:44.677Z,27.90
2018-11-06T17:02:29.094Z,25.97
2018-11-06T17:07:13.304Z,26.67
2018-11-06T17:11:57.148Z,27.03
2018-11-06T17:16:41.490Z,26.83
2018-11-06T17:21:25.853Z,27.67
2018-11-06T17:26:09.838Z,27.27
2018-11-06T17:30:54.355Z,27.67
2018-11-06T17:35:39.202Z,27.77
2018-11-06T17:40:23.332Z,27.20
2018-11-06T17:45:09.435Z,27.67
2018-11-06T17:49:53.443Z,27.67
2018-11-06T17:54:37.703Z,29.85
2018-11-06T17:59:21.620Z,36.83
2018-11-06T18:04:05.692Z,28.60
2018-11-06T18:08:50.017Z,29.33
2018-11-06T18:13:34.247Z,27.33
2018-11-06T18:18:18.539Z,29.17
2018-11-06T18:23:02.871Z,28.17
2018-11-06T18:27:47.121Z,28.27
2018-11-06T18:32:32.382Z,28.07
2018-11-06T18:37:17.055Z,27.50
2018-11-06T18:42:02.899Z,29.03
2018-11-06T18:46:47.079Z,28.33
2018-11-06T18:51:31.527Z,28.77
2018-11-06T18:56:15.698Z,28.73
2018-11-06T19:01:00.249Z,29.60
2018-11-06T19:05:44.652Z,37.38
2018-11-06T19:10:29.201Z,31.83
2018-11-06T19:15:14.869Z,28.87
2018-11-06T19:20:00.823Z,29.33
2018-11-06T19:24:45.360Z,28.43
2018-11-06T19:29:30.342Z,27.50
2018-11-06T19:34:15.004Z,28.70
2018-11-06T19:38:59.400Z,29.17
2018-11-06T19:43:44.405Z,28.87
2018-11-06T19:48:28.465Z,30.73
2018-11-06T19:53:12.565Z,29.37
2018-11-06T19:58:00.383Z,30.30
2018-11-06T20:02:47.150Z,29.70
2018-11-06T20:07:46.079Z,28.60
2018-11-06T20:12:34.479Z,28.43
2018-11-06T20:17:28.746Z,29.40
2018-11-06T20:22:12.886Z,28.23
2018-11-06T20:26:57.144Z,27.93
2018-11-06T20:31:41.085Z,30.17
2018-11-06T20:36:41.399Z,28.03
2018-11-06T20:41:25.617Z,27.27
2018-11-06T20:46:10.350Z,27.43
2018-11-06T20:51:16.244Z,28.13
2018-11-06T20:56:00.496Z,26.87
2018-11-06T21:00:44.403Z,26.47
2018-11-06T21:05:28.592Z,27.53
2018-11-06T21:10:13.427Z,26.17
2018-11-06T21:14:57.649Z,26.93
2018-11-06T21:19:44.795Z,25.90
2018-11-06T21:24:28.728Z,25.37
2018-11-06T21:29:13.020Z,26.33
2018-11-06T21:33:56.851Z,24.07
2018-11-06T21:38:41.809Z,23.60
2018-11-06T21:43:25.586Z,24.23
2018-11-06T21:48:09.780Z,25.57
2018-11-06T21:52:54.593Z,23.33
2018-11-06T21:57:38.667Z,23.57
2018-11-06T22:02:23.369Z,23.67
2018-11-06T22:07:07.922Z,23.13
2018-11-06T22:11:51.874Z,23.73
2018-11-06T22:16:37.054Z,23.30
2018-11-06T22:21:21.844Z,23.93
2018-11-06T22:26:05.853Z,23.47
2018-11-06T22:30:49.932Z,23.50
2018-11-06T22:35:34.235Z,24.73
2018-11-06T22:40:18.575Z,24.57
2018-11-06T22:45:02.373Z,24.57
2018-11-06T22:49:46.215Z,22.90
2018-11-06T22:54:30.207Z,23.30
2018-11-06T22:59:15.079Z,23.60
2018-11-06T23:03:59.213Z,23.17
2018-11-06T23:08:43.736Z,22.70
2018-11-06T23:13:27.517Z,24.77
2018-11-06T23:18:11.634Z,23.90
2018-11-06T23:22:55.621Z,23.13
2018-11-06T23:27:39.509Z,24.20
2018-11-06T23:32:23.277Z,24.03
2018-11-06T23:37:07.378Z,23.30
2018-11-06T23:41:51.960Z,23.47
2018-11-06T23:46:35.734Z,23.70
2018-11-06T23:51:20.276Z,24.10
2018-11-06T23:56:04.318Z,24.23
